createdAt,value
2019-01-18T00:02:08.244Z,52.53
2019-01-18T00:04:36.519Z,52.41
2019-01-18T00:07:04.844Z,52.39
2019-01-18T00:09:33.123Z,52.25
2019-01-18T00:12:01.395Z,52.23
2019-01-18T00:14:29.706Z,52.91
2019-01-18T00:16:57.995Z,52.25
2019-01-18T00:19:26.276Z,52.59
2019-01-18T00:21:54.605Z,55.12
2019-01-18T00:24:22.951Z,54.12
2019-01-18T00:26:51.237Z,52.89
2019-01-18T00:29:19.567Z,53.13
2019-01-18T00:31:47.856Z,53.71
2019-01-18T00:34:16.160Z,53.34
2019-01-18T00:36:44.489Z,54.92
2019-01-18T00:39:12.774Z,54.27
2019-01-18T00:41:41.130Z,53.70
2019-01-18T00:44:09.522Z,53.84
2019-01-18T00:46:37.810Z,55.01
2019-01-18T00:49:06.098Z,56.00
2019-01-18T00:51:34.421Z,55.78
2019-01-18T00:54:02.704Z,54.92
2019-01-18T00:56:30.983Z,53.86
2019-01-18T00:58:59.310Z,53.76
2019-01-18T01:01:27.589Z,53.33
2019-01-18T01:03:55.946Z,53.17
2019-01-18T01:06:24.342Z,53.26
2019-01-18T01:08:52.635Z,53.55
2019-01-18T01:11:20.921Z,54.85
2019-01-18T01:13:49.380Z,54.52
2019-01-18T01:16:17.661Z,55.19
2019-01-18T01:18:46.014Z,54.16
2019-01-18T01:21:14.333Z,53.61
2019-01-18T01:23:42.625Z,54.55
2019-01-18T01:26:10.985Z,53.87
2019-01-18T01:28:39.311Z,53.58
2019-01-18T01:31:07.591Z,52.92
2019-01-18T01:33:36.009Z,53.26
2019-01-18T01:36:04.329Z,53.80
2019-01-18T01:38:32.628Z,53.67
2019-01-18T01:41:00.929Z,54.15
2019-01-18T01:43:29.253Z,54.75
2019-01-18T01:45:57.554Z,54.12
2019-01-18T01:48:25.839Z,53.45
2019-01-18T01:50:54.228Z,53.54
2019-01-18T01:53:22.977Z,54.30
2019-01-18T01:55:51.266Z,54.52
2019-01-18T01:58:19.665Z,55.80
2019-01-18T02:00:47.943Z,54.48
2019-01-18T02:03:16.302Z,54.35
2019-01-18T02:05:44.708Z,54.07
2019-01-18T02:08:13.065Z,54.16
2019-01-18T02:10:41.360Z,54.50
2019-01-18T02:13:09.759Z,53.62
2019-01-18T02:15:38.045Z,53.57
2019-01-18T02:18:06.346Z,54.75
2019-01-18T02:20:34.657Z,54.86
2019-01-18T02:23:03.010Z,54.22
2019-01-18T02:25:32.436Z,56.99
2019-01-18T02:28:00.757Z,56.23
2019-01-18T02:30:29.050Z,55.14
2019-01-18T02:32:57.337Z,54.15
2019-01-18T02:38:19.630Z,57.04
2019-01-18T02:40:47.923Z,55.68
2019-01-18T02:43:16.227Z,55.01
2019-01-18T02:45:44.525Z,54.88
2019-01-18T02:48:12.805Z,54.71
2019-01-18T02:50:41.094Z,55.42
2019-01-18T02:53:09.484Z,54.93
2019-01-18T02:55:37.766Z,56.93
2019-01-18T02:58:06.052Z,58.68
2019-01-18T03:00:34.394Z,57.10
2019-01-18T03:03:02.672Z,55.93
2019-01-18T03:05:30.965Z,55.29
2019-01-18T03:07:59.292Z,57.19
2019-01-18T03:10:28.916Z,55.92
2019-01-18T03:12:57.199Z,55.27
2019-01-18T03:15:25.590Z,54.51
2019-01-18T03:17:53.880Z,54.25
2019-01-18T03:20:22.165Z,54.16
2019-01-18T03:22:50.479Z,54.34
2019-01-18T03:25:21.452Z,54.49
2019-01-18T03:27:49.744Z,54.04
2019-01-18T03:30:20.803Z,56.89
2019-01-18T03:32:49.020Z,56.49
2019-01-18T03:35:19.136Z,56.17
2019-01-18T03:37:47.455Z,58.08
2019-01-18T03:40:16.879Z,58.41
2019-01-18T03:42:45.155Z,56.72
2019-01-18T03:45:15.306Z,56.13
2019-01-18T03:47:43.621Z,55.66
2019-01-18T03:50:17.081Z,55.38
2019-01-18T03:52:45.398Z,55.62
2019-01-18T03:55:13.759Z,54.53
2019-01-18T03:57:42.035Z,54.83
2019-01-18T04:00:13.464Z,56.14
2019-01-18T04:02:41.743Z,59.57
2019-01-18T04:05:10.967Z,59.70
2019-01-18T04:07:39.290Z,60.66
2019-01-18T04:10:10.891Z,59.94
2019-01-18T04:12:39.173Z,57.52
2019-01-18T04:15:10.963Z,56.31
2019-01-18T04:17:39.243Z,56.53
2019-01-18T04:20:10.462Z,56.26
2019-01-18T04:22:38.790Z,57.02
2019-01-18T04:25:10.094Z,57.01
2019-01-18T04:27:38.459Z,56.35
2019-01-18T04:30:12.507Z,55.85
2019-01-18T04:32:40.791Z,57.57
2019-01-18T04:35:10.406Z,55.36
2019-01-18T04:37:38.706Z,54.67
2019-01-18T04:40:10.299Z,54.53
2019-01-18T04:42:38.583Z,54.99
2019-01-18T04:45:08.433Z,54.60
2019-01-18T04:47:36.704Z,55.13
2019-01-18T04:50:11.053Z,55.45
2019-01-18T04:52:39.443Z,55.16
2019-01-18T04:55:09.166Z,55.71
2019-01-18T04:57:37.516Z,55.17
2019-01-18T05:00:09.175Z,55.36
2019-01-18T05:02:37.460Z,54.58
2019-01-18T05:05:06.476Z,54.54
2019-01-18T05:07:34.794Z,54.94
2019-01-18T05:10:04.821Z,54.90
2019-01-18T05:12:33.098Z,54.93
2019-01-18T05:15:01.416Z,54.98
2019-01-18T05:17:29.701Z,55.23
2019-01-18T05:19:57.976Z,55.13
2019-01-18T05:22:26.292Z,55.05
2019-01-18T05:24:54.574Z,55.01
2019-01-18T05:27:22.862Z,57.15
2019-01-18T05:29:51.264Z,61.49
2019-01-18T05:32:19.554Z,58.54
2019-01-18T05:34:47.852Z,58.49
2019-01-18T05:37:16.176Z,58.50
2019-01-18T05:39:44.454Z,57.94
2019-01-18T05:42:12.817Z,56.66
2019-01-18T05:44:41.150Z,56.45
2019-01-18T05:47:09.431Z,56.43
2019-01-18T05:49:37.721Z,56.95
2019-01-18T05:52:06.039Z,55.67
2019-01-18T05:54:34.321Z,55.61
2019-01-18T05:57:02.610Z,55.73
2019-01-18T05:59:30.945Z,56.50
2019-01-18T06:01:59.225Z,55.20
2019-01-18T06:04:27.511Z,56.55
2019-01-18T06:06:55.828Z,57.68
2019-01-18T06:09:24.176Z,57.22
2019-01-18T06:11:52.467Z,56.95
2019-01-18T06:14:20.795Z,56.79
2019-01-18T06:16:49.077Z,56.21
2019-01-18T06:19:17.346Z,55.81
2019-01-18T06:21:45.668Z,57.94
2019-01-18T06:24:13.950Z,56.99
2019-01-18T06:26:42.229Z,58.21
2019-01-18T06:29:10.574Z,57.71
2019-01-18T06:31:38.858Z,56.33
2019-01-18T06:34:07.147Z,57.06
2019-01-18T06:36:35.537Z,55.54
2019-01-18T06:39:05.519Z,57.17
2019-01-18T06:41:34.587Z,56.53
2019-01-18T06:44:02.906Z,56.89
2019-01-18T06:46:31.191Z,56.43
2019-01-18T06:48:59.745Z,55.67
2019-01-18T06:51:28.156Z,56.81
2019-01-18T06:53:56.438Z,55.34
2019-01-18T06:56:24.719Z,55.69
2019-01-18T06:58:53.036Z,55.29
2019-01-18T07:01:21.318Z,55.81
2019-01-18T07:03:49.675Z,57.23
2019-01-18T07:06:17.995Z,57.07
2019-01-18T07:08:46.273Z,56.76
2019-01-18T07:11:14.632Z,55.60
2019-01-18T07:13:42.958Z,55.15
2019-01-18T07:16:11.241Z,55.12
2019-01-18T07:18:39.526Z,55.17
2019-01-18T07:21:07.850Z,56.88
2019-01-18T07:23:36.205Z,57.34
2019-01-18T07:26:04.491Z,60.61
2019-01-18T07:28:32.812Z,60.33
2019-01-18T07:31:01.232Z,59.43
2019-01-18T07:33:29.517Z,59.33
2019-01-18T07:35:57.839Z,61.06
2019-01-18T07:38:26.124Z,60.05
2019-01-18T07:40:54.478Z,59.82
2019-01-18T07:43:22.874Z,58.57
2019-01-18T07:45:51.160Z,57.39
2019-01-18T07:48:19.442Z,58.39
2019-01-18T07:50:47.768Z,57.38
2019-01-18T07:53:16.440Z,57.32
2019-01-18T07:55:44.723Z,55.78
2019-01-18T07:58:13.044Z,55.69
2019-01-18T08:00:41.960Z,55.09
2019-01-18T08:03:10.245Z,56.20
2019-01-18T08:05:38.580Z,54.81
2019-01-18T08:08:06.934Z,56.37
2019-01-18T08:10:35.285Z,55.11
2019-01-18T08:13:03.717Z,55.07
2019-01-18T08:15:33.107Z,53.89
2019-01-18T08:18:01.576Z,53.24
2019-01-18T08:20:30.163Z,52.78
2019-01-18T08:22:58.687Z,54.12
2019-01-18T08:25:27.205Z,53.46
2019-01-18T08:27:55.607Z,52.78
2019-01-18T08:30:26.497Z,52.45
2019-01-18T09:08:16.800Z,47.59
2019-01-18T09:10:46.554Z,50.01
2019-01-18T09:13:14.921Z,49.77
2019-01-18T09:15:43.239Z,49.00
2019-01-18T09:18:11.510Z,48.56
2019-01-18T09:20:39.785Z,48.37
2019-01-18T09:23:08.096Z,48.23
2019-01-18T09:25:36.390Z,47.83
2019-01-18T09:28:04.648Z,47.79
2019-01-18T09:30:34.274Z,48.73
2019-01-18T09:33:03.688Z,47.97
2019-01-18T09:35:32.694Z,47.47
2019-01-18T09:38:02.241Z,47.14
2019-01-18T09:40:32.351Z,47.54
2019-01-18T09:43:00.626Z,47.44
2019-01-18T09:45:29.011Z,47.93
2019-01-18T09:47:57.286Z,46.52
2019-01-18T09:50:27.875Z,45.66
2019-01-18T09:52:56.339Z,45.08
2019-01-18T09:55:24.619Z,44.79
2019-01-18T09:57:52.902Z,45.32
2019-01-18T10:00:35.513Z,45.14
2019-01-18T10:03:03.861Z,45.17
2019-01-18T10:05:32.207Z,45.95
2019-01-18T10:08:00.589Z,46.88
2019-01-18T10:10:28.875Z,46.59
2019-01-18T10:12:57.146Z,46.72
2019-01-18T10:15:42.010Z,45.89
2019-01-18T10:18:10.367Z,46.33
2019-01-18T10:20:38.643Z,46.10
2019-01-18T10:23:06.960Z,46.57
2019-01-18T10:25:35.240Z,46.13
2019-01-18T10:28:03.520Z,44.78
2019-01-18T10:30:31.816Z,44.57
2019-01-18T10:33:00.100Z,44.76
2019-01-18T10:35:28.818Z,45.51
2019-01-18T10:37:57.142Z,44.89
2019-01-18T10:40:25.689Z,45.10
2019-01-18T10:42:53.995Z,46.53
2019-01-18T10:45:22.526Z,47.85
2019-01-18T10:47:51.251Z,47.46
2019-01-18T10:50:28.230Z,48.85
2019-01-18T10:52:56.519Z,47.04
2019-01-18T10:55:24.790Z,48.36
2019-01-18T10:57:53.098Z,48.69
2019-01-18T11:00:30.143Z,46.60
2019-01-18T11:02:58.523Z,46.85
2019-01-18T11:05:26.802Z,47.40
2019-01-18T11:07:55.102Z,47.30
2019-01-18T11:10:23.415Z,47.23
2019-01-18T11:12:51.694Z,47.48
2019-01-18T11:15:23.241Z,46.11
2019-01-18T11:17:51.551Z,46.42
2019-01-18T11:20:22.644Z,49.44
2019-01-18T11:22:51.751Z,47.32
2019-01-18T11:25:20.072Z,47.34
2019-01-18T11:27:50.381Z,46.47
2019-01-18T11:30:18.658Z,47.87
2019-01-18T11:32:46.980Z,48.82
2019-01-18T11:35:15.258Z,49.43
2019-01-18T11:37:43.545Z,48.46
2019-01-18T11:40:20.573Z,48.70
2019-01-18T11:42:48.859Z,47.78
2019-01-18T11:45:17.286Z,47.86
2019-01-18T11:47:45.669Z,47.92
2019-01-18T11:50:28.187Z,47.98
2019-01-18T11:52:56.499Z,48.25
2019-01-18T11:55:24.858Z,46.75
2019-01-18T11:57:53.137Z,46.74
2019-01-18T12:00:23.689Z,47.08
2019-01-18T12:02:52.048Z,47.85
2019-01-18T12:05:20.329Z,46.52
2019-01-18T12:07:48.731Z,46.40
2019-01-18T12:10:28.280Z,45.02
2019-01-18T12:12:56.605Z,45.49
2019-01-18T12:15:25.050Z,44.83
2019-01-18T12:17:53.404Z,45.34
2019-01-18T12:20:27.768Z,44.51
2019-01-18T12:22:56.259Z,44.07
2019-01-18T12:25:24.755Z,45.20
2019-01-18T12:27:53.270Z,44.58
2019-01-18T12:30:27.038Z,43.69
2019-01-18T12:32:55.457Z,44.39
2019-01-18T12:35:23.774Z,44.49
2019-01-18T12:37:52.264Z,44.16
2019-01-18T12:40:20.553Z,43.60
2019-01-18T12:42:48.877Z,43.14
2019-01-18T12:45:19.281Z,44.16
2019-01-18T12:47:47.652Z,43.85
2019-01-18T12:50:25.062Z,43.70
2019-01-18T12:52:53.336Z,43.39
2019-01-18T12:55:21.748Z,43.55
2019-01-18T12:57:51.719Z,44.04
2019-01-18T13:00:22.478Z,43.08
2019-01-18T13:02:50.770Z,43.39
2019-01-18T13:05:21.678Z,44.02
2019-01-18T13:07:50.199Z,44.02
2019-01-18T13:10:18.685Z,45.02
2019-01-18T13:12:47.067Z,45.34
2019-01-18T13:15:18.671Z,46.70
2019-01-18T13:17:47.159Z,44.87
2019-01-18T13:20:15.529Z,44.85
2019-01-18T13:22:44.039Z,45.49
2019-01-18T13:25:17.801Z,44.52
2019-01-18T13:27:46.327Z,45.22
2019-01-18T13:30:16.619Z,45.79
2019-01-18T13:32:44.887Z,45.90
2019-01-18T13:35:13.414Z,45.00
2019-01-18T13:37:41.696Z,44.92
2019-01-18T13:40:15.783Z,44.90
2019-01-18T13:42:44.089Z,44.72
2019-01-18T13:45:13.475Z,44.98
2019-01-18T13:47:42.700Z,45.16
2019-01-18T13:50:14.332Z,44.92
2019-01-18T13:52:42.822Z,44.81
2019-01-18T13:55:23.404Z,45.42
2019-01-18T13:57:51.748Z,45.05
2019-01-18T14:00:20.232Z,44.69
2019-01-18T14:02:48.815Z,44.67
2019-01-18T14:05:17.322Z,44.67
2019-01-18T14:07:45.809Z,44.34
2019-01-18T14:10:23.049Z,44.79
2019-01-18T14:12:51.396Z,43.91
2019-01-18T14:15:21.440Z,44.04
2019-01-18T14:17:50.000Z,43.46
2019-01-18T14:20:23.869Z,43.46
2019-01-18T14:22:52.645Z,43.58
2019-01-18T14:25:21.183Z,43.73
2019-01-18T14:27:49.674Z,43.78
2019-01-18T14:30:20.837Z,43.78
2019-01-18T14:32:55.155Z,43.70
2019-01-18T14:35:19.360Z,43.67
2019-01-18T14:37:47.846Z,43.92
2019-01-18T14:40:18.321Z,44.46
2019-01-18T14:42:51.209Z,44.32
2019-01-18T14:45:34.318Z,45.18
2019-01-18T14:48:02.792Z,44.55
2019-01-18T14:50:31.282Z,44.44
2019-01-18T14:52:59.807Z,44.51
2019-01-18T14:55:28.294Z,47.36
2019-01-18T14:57:56.777Z,49.24
2019-01-18T15:00:34.515Z,49.21
2019-01-18T15:03:04.561Z,48.94
2019-01-18T15:05:33.048Z,48.11
2019-01-18T15:08:01.571Z,47.13
2019-01-18T15:10:30.054Z,47.13
2019-01-18T15:13:07.704Z,47.30
2019-01-18T15:15:36.180Z,48.47
2019-01-18T15:18:04.667Z,48.53
2019-01-18T15:20:34.278Z,48.90
2019-01-18T15:23:02.965Z,49.00
2019-01-18T15:25:31.461Z,49.12
2019-01-18T15:28:00.990Z,49.23
2019-01-18T15:30:31.447Z,49.86
2019-01-18T15:33:00.798Z,49.49
2019-01-18T15:35:32.041Z,49.96
2019-01-18T15:38:00.491Z,51.78
2019-01-18T15:40:31.641Z,53.23
2019-01-18T15:43:01.168Z,51.70
2019-01-18T15:45:29.660Z,50.98
2019-01-18T15:47:58.151Z,53.22
2019-01-18T15:50:32.274Z,51.63
2019-01-18T15:53:00.806Z,51.90
2019-01-18T15:55:29.254Z,51.35
2019-01-18T15:57:57.759Z,50.92
2019-01-18T16:00:34.245Z,51.16
2019-01-18T16:03:02.766Z,51.33
2019-01-18T16:05:31.256Z,51.12
2019-01-18T16:07:59.742Z,51.04
2019-01-18T16:10:28.268Z,52.33
2019-01-18T16:12:56.803Z,51.85
2019-01-18T16:15:31.408Z,51.22
2019-01-18T16:18:00.049Z,51.57
2019-01-18T16:20:28.539Z,52.61
2019-01-18T16:22:57.024Z,51.59
2019-01-18T16:25:28.069Z,51.52
2019-01-18T16:27:56.559Z,51.65
2019-01-18T16:30:26.350Z,51.49
2019-01-18T16:32:57.430Z,51.58
2019-01-18T16:35:26.007Z,51.54
2019-01-18T16:37:54.510Z,51.48
2019-01-18T16:40:25.822Z,51.57
2019-01-18T16:43:00.506Z,51.91
2019-01-18T16:45:28.984Z,52.45
2019-01-18T16:47:57.499Z,52.39
2019-01-18T16:50:25.984Z,52.38
2019-01-18T16:52:54.488Z,55.35
2019-01-18T16:55:22.998Z,53.69
2019-01-18T16:57:51.487Z,52.78
2019-01-18T17:00:26.000Z,53.06
2019-01-18T17:02:54.725Z,53.24
2019-01-18T17:05:23.223Z,52.74
2019-01-18T17:07:51.707Z,53.21
2019-01-18T17:10:20.237Z,53.45
2019-01-18T17:12:48.752Z,53.63
2019-01-18T17:15:18.108Z,54.21
2019-01-18T17:17:46.625Z,53.71
2019-01-18T17:20:26.270Z,53.20
2019-01-18T17:22:54.802Z,53.23
2019-01-18T17:25:26.988Z,52.93
2019-01-18T17:27:55.499Z,52.89
2019-01-18T17:30:24.038Z,55.50
2019-01-18T17:32:52.528Z,53.96
2019-01-18T17:35:38.986Z,53.37
2019-01-18T17:38:16.175Z,53.70
2019-01-18T17:41:05.672Z,53.62
2019-01-18T17:44:05.397Z,53.54
2019-01-18T17:46:37.049Z,53.15
2019-01-18T17:49:14.417Z,53.11
2019-01-18T17:51:55.132Z,52.80
2019-01-18T17:54:35.406Z,52.76
2019-01-18T17:57:12.865Z,52.84
2019-01-18T17:59:59.280Z,52.63
2019-01-18T18:02:30.959Z,53.18
2019-01-18T18:05:25.308Z,53.53
2019-01-18T18:08:09.125Z,52.48
2019-01-18T18:10:49.395Z,55.16
2019-01-18T18:13:25.051Z,52.89
2019-01-18T18:16:11.632Z,52.42
2019-01-18T18:19:01.113Z,52.24
2019-01-18T18:21:50.427Z,52.22
2019-01-18T18:24:24.830Z,52.61
2019-01-18T18:27:12.943Z,52.67
2019-01-18T18:29:44.606Z,52.53
2019-01-18T18:32:18.807Z,52.00
2019-01-18T18:34:53.094Z,52.08
2019-01-18T18:37:50.341Z,52.02
2019-01-18T18:40:30.618Z,50.84
2019-01-18T18:43:11.945Z,52.20
2019-01-18T18:46:01.681Z,55.41
2019-01-18T18:48:39.397Z,53.69
2019-01-18T18:51:29.140Z,52.92
2019-01-18T18:54:24.390Z,52.65
2019-01-18T18:57:04.742Z,52.51
2019-01-18T18:59:42.345Z,52.40
2019-01-18T19:02:19.542Z,52.08
2019-01-18T19:04:56.900Z,51.64
2019-01-18T19:07:37.637Z,51.29
2019-01-18T19:10:42.150Z,50.67
2019-01-18T19:13:22.580Z,50.92
2019-01-18T19:16:02.814Z,52.20
2019-01-18T19:18:46.062Z,52.02
2019-01-18T19:21:20.684Z,50.87
2019-01-18T19:24:06.734Z,51.06
2019-01-18T19:26:38.357Z,51.24
2019-01-18T19:29:15.985Z,51.16
2019-01-18T19:31:55.975Z,51.05
2019-01-18T19:34:33.301Z,51.10
2019-01-18T19:37:26.009Z,51.38
2019-01-18T19:40:16.677Z,51.08
2019-01-18T19:43:06.872Z,50.92
2019-01-18T19:45:47.941Z,50.82
2019-01-18T19:48:34.178Z,50.30
2019-01-18T19:51:23.900Z,50.77
2019-01-18T19:54:04.396Z,50.67
2019-01-18T19:56:47.955Z,50.21
2019-01-18T19:59:19.559Z,50.61
2019-01-18T20:02:09.207Z,49.60
2019-01-18T20:04:55.640Z,51.05
2019-01-18T20:07:35.711Z,50.28
2019-01-18T20:10:28.174Z,50.33
2019-01-18T20:13:07.246Z,50.28
2019-01-18T20:15:50.760Z,50.49
2019-01-18T20:18:31.584Z,50.47
2019-01-18T20:21:12.167Z,49.94
2019-01-18T20:24:01.880Z,50.97
2019-01-18T20:26:45.009Z,52.63
2019-01-18T20:29:19.125Z,52.54
2019-01-18T20:32:20.507Z,52.23
2019-01-18T20:35:08.368Z,52.14
2019-01-18T20:37:52.136Z,52.72
2019-01-18T20:40:24.297Z,52.29
2019-01-18T20:43:19.898Z,52.22
2019-01-18T20:46:03.234Z,52.16
2019-01-18T20:48:40.880Z,52.41
2019-01-18T20:51:12.516Z,52.37
2019-01-18T20:53:53.036Z,52.86
2019-01-18T20:56:27.669Z,52.86
2019-01-18T20:58:59.295Z,52.84
2019-01-18T21:01:57.792Z,52.70
2019-01-18T21:04:50.326Z,52.97
2019-01-18T21:07:49.363Z,52.86
2019-01-18T21:10:26.609Z,53.02
2019-01-18T21:13:26.599Z,53.05
2019-01-18T21:16:06.998Z,53.15
2019-01-18T21:18:44.510Z,53.50
2019-01-18T21:21:41.675Z,53.05
2019-01-18T21:24:29.562Z,53.49
2019-01-18T21:27:07.220Z,53.34
2019-01-18T21:29:38.859Z,53.34
2019-01-18T21:32:28.540Z,53.06
2019-01-18T21:35:11.699Z,51.93
2019-01-18T21:37:43.294Z,51.63
2019-01-18T21:40:29.881Z,51.68
2019-01-18T21:43:16.413Z,51.58
2019-01-18T21:46:02.665Z,52.13
2019-01-18T21:48:42.907Z,52.15
2019-01-18T21:51:30.911Z,52.11
2019-01-18T21:54:02.512Z,52.36
2019-01-18T21:56:55.293Z,52.13
2019-01-18T21:59:51.027Z,53.01
2019-01-18T22:02:28.110Z,52.71
2019-01-18T22:05:17.667Z,52.95
2019-01-18T22:08:01.288Z,52.81
2019-01-18T22:10:32.830Z,52.34
2019-01-18T22:13:19.081Z,52.19
2019-01-18T22:16:12.956Z,51.92
2019-01-18T22:18:44.553Z,52.26
2019-01-18T22:21:37.229Z,51.99
2019-01-18T22:24:14.513Z,52.21
2019-01-18T22:27:08.531Z,52.09
2019-01-18T22:29:45.850Z,52.04
2019-01-18T22:32:26.141Z,53.58
2019-01-18T22:35:00.634Z,52.75
2019-01-18T22:37:46.846Z,52.50
2019-01-18T22:40:29.766Z,52.36
2019-01-18T22:43:21.507Z,53.06
2019-01-18T22:45:55.803Z,52.65
2019-01-18T22:48:30.076Z,52.50
2019-01-18T22:51:16.410Z,52.71
2019-01-18T22:53:47.945Z,52.88
2019-01-18T22:56:19.488Z,52.70
2019-01-18T22:58:53.546Z,52.35
2019-01-18T23:01:50.549Z,51.97
2019-01-18T23:04:33.692Z,51.43
2019-01-18T23:07:19.629Z,51.75
2019-01-18T23:10:12.255Z,51.84
2019-01-18T23:12:55.811Z,51.88
2019-01-18T23:16:01.667Z,52.08
2019-01-18T23:18:41.980Z,53.00
2019-01-18T23:21:25.710Z,54.87
2019-01-18T23:24:02.800Z,53.10
2019-01-18T23:26:55.047Z,53.12
2019-01-18T23:29:29.382Z,53.07
2019-01-18T23:32:00.943Z,53.09
2019-01-18T23:34:38.113Z,53.10
2019-01-18T23:37:27.705Z,52.86
2019-01-18T23:40:29.427Z,53.56
2019-01-18T23:43:09.610Z,53.14
2019-01-18T23:45:52.405Z,53.41
2019-01-18T23:48:58.355Z,53.11
2019-01-18T23:51:39.293Z,53.48
2019-01-18T23:54:31.865Z,53.65
2019-01-18T23:57:37.852Z,53.73
